LIPX Airport Information

Runway Information
Runway 04 Length 10064 ft width 148 ft
Elevation 220 ft Threshold 189 ft Heading 46
Runway 22 Length 10064 ft Width 148 ft
Elevation 238 ft Threshold 1345 ft Heading 226
Airport Frequencies
Type APP Name GARDA APP Frequency 36.23 MHZ
Type APP Name GARDA APP Frequency 124.45 MHZ
Type GND Name GND Frequency 121.75 MHZ
Type INFO Name PADOVA INF Frequency 123.25 MHZ
Type TWR Name TWR Frequency 118.65 MHZ
Airport Navaids
Type VORTAC Name Villafranca Frequency 115800 KHZ
Type NDB Name Villafranca Frequency 355 KHZ
Airport Weather Information & NOTAM
ADDS - METARS form results

(0148 UTC 11 August 2022)
Data provider http://aviationweather.gov/metar/data/
 
METAR text: LIPX 110120Z 09004KT 9999 BKN070 24/15 Q1020
Conditions at: LIPX (VILLAFRANCA(CV/M, IT) observed 0120 UTC 11 August 2022
Temperature: 24.0°C (75°F)
Dewpoint: 15.0°C (59°F) [RH = 57%]
Pressure (altimeter): 30.12 inches Hg (1020.0 mb)
Winds: from the E (90 degrees) at 5 MPH (4 knots; 2.1 m/s)
Visibility: 6 or more miles (10+ km)
Ceiling: 7000 feet AGL
Clouds: broken clouds at 7000 feet AGL
Weather: no significant weather observed at this time

METAR text: LIPX 110050Z 10004KT 9999 BKN080 24/14 Q1020
Conditions at: LIPX (VILLAFRANCA(CV/M, IT) observed 0050 UTC 11 August 2022
Temperature: 24.0°C (75°F)
Dewpoint: 14.0°C (57°F) [RH = 54%]
Pressure (altimeter): 30.12 inches Hg (1020.0 mb)
Winds: from the E (100 degrees) at 5 MPH (4 knots; 2.1 m/s)
Visibility: 6 or more miles (10+ km)
Ceiling: 8000 feet AGL
Clouds: broken clouds at 8000 feet AGL
Weather: no significant weather observed at this time

Forecast for: LIPX (VILLAFRANCA(CV/M, IT)
Text: TAF LIPX 102300Z 1100/1124 VRB05KT 9999 SCT060
Forecast period: 0000 to 0800 UTC 11 August 2022
Forecast type: FROM: standard forecast or significant change
Winds: variable direction winds at 6 MPH (5 knots; 2.6 m/s)
Visibility: 6 or more miles (10+ km)
Ceiling: at least 12,000 feet AGL
Clouds: scattered clouds at 6000 feet AGL
Weather: no significant weather forecast for this period
Text: BECMG 1108/1110 11010KT
Forecast period: 0800 to 1800 UTC 11 August 2022
Forecast type: BECOMING: Conditions expected to become as follows by 1000 UTC 11 August 2022
Winds: from the ESE (110 degrees) at 12 MPH (10 knots; 5.1 m/s)
Visibility: 6 or more miles (10+ km)
Ceiling: at least 12,000 feet AGL
Clouds: scattered clouds at 6000 feet AGL
Weather: no significant weather forecast for this period
Text: BECMG 1118/1120 VRB05KT
Forecast period: 1800 UTC 11 August 2022 to 0000 UTC 12 August 2022
Forecast type: BECOMING: Conditions expected to become as follows by 2000 UTC 11 August 2022
Winds: variable direction winds at 6 MPH (5 knots; 2.6 m/s)
Visibility: 6 or more miles (10+ km)
Ceiling: at least 12,000 feet AGL
Clouds: scattered clouds at 6000 feet AGL
Weather: no significant weather forecast for this period